createdAt,value
2023-01-11T00:01:29.615Z,72.22
2023-01-11T00:04:48.795Z,72.08
2023-01-11T00:08:11.653Z,72.13
2023-01-11T00:12:02.280Z,72.17
2023-01-11T00:16:10.249Z,72.27
2023-01-11T00:19:40.664Z,72.31
2023-01-11T00:23:08.738Z,72.36
2023-01-11T00:26:58.306Z,72.20
2023-01-11T00:30:27.424Z,72.10
2023-01-11T00:33:56.016Z,72.28
2023-01-11T00:37:13.755Z,72.19
2023-01-11T00:41:21.769Z,72.09
2023-01-11T00:45:03.476Z,72.11
2023-01-11T00:48:12.181Z,71.97
2023-01-11T00:50:56.981Z,72.00
2023-01-11T00:54:25.978Z,72.00
2023-01-11T00:58:25.629Z,71.90
2023-01-11T01:01:48.120Z,71.89
2023-01-11T01:05:09.531Z,71.80
2023-01-11T01:08:07.319Z,71.69
2023-01-11T01:11:44.358Z,71.65
2023-01-11T01:15:25.273Z,71.60
2023-01-11T01:19:24.629Z,71.64
2023-01-11T01:23:33.997Z,71.74
2023-01-11T01:27:43.529Z,71.51
2023-01-11T01:31:41.453Z,71.51
2023-01-11T01:35:03.691Z,71.68
2023-01-11T01:38:25.521Z,71.50
2023-01-11T01:42:35.072Z,71.57
2023-01-11T01:46:06.754Z,71.49
2023-01-11T01:49:07.985Z,71.43
2023-01-11T01:52:30.373Z,71.36
2023-01-11T01:55:33.316Z,71.34
2023-01-11T01:58:48.756Z,71.31
2023-01-11T02:02:22.029Z,71.39
2023-01-11T02:05:22.888Z,71.35
2023-01-11T02:08:41.163Z,71.16
2023-01-11T02:12:32.060Z,71.14
2023-01-11T02:16:12.816Z,71.32
2023-01-11T02:19:46.371Z,71.18
2023-01-11T02:23:28.283Z,71.10
2023-01-11T02:27:09.669Z,71.04
2023-01-11T02:31:34.158Z,70.94
2023-01-11T02:35:26.080Z,70.86
2023-01-11T02:39:33.554Z,70.56
2023-01-11T02:43:09.276Z,70.59
2023-01-11T02:47:15.690Z,70.49
2023-01-11T02:56:04.742Z,70.33
2023-01-11T02:59:24.694Z,70.24
2023-01-11T03:02:46.319Z,70.14
2023-01-11T03:06:22.536Z,70.20
2023-01-11T03:10:32.639Z,70.41
2023-01-11T03:14:09.851Z,70.34
2023-01-11T03:18:23.565Z,70.47
2023-01-11T03:22:28.882Z,70.60
2023-01-11T03:26:59.826Z,70.67
2023-01-11T03:31:01.177Z,70.91
2023-01-11T03:34:46.412Z,71.00
2023-01-11T03:38:19.322Z,70.95
2023-01-11T03:41:59.052Z,70.93
2023-01-11T03:45:54.367Z,70.87
2023-01-11T03:49:08.379Z,70.79
2023-01-11T03:52:15.930Z,70.74
2023-01-11T03:55:58.084Z,70.70
2023-01-11T03:59:01.358Z,70.76
2023-01-11T04:02:23.315Z,70.69
2023-01-11T04:05:44.101Z,70.64
2023-01-11T04:09:22.596Z,70.49
2023-01-11T04:12:33.969Z,70.38
2023-01-11T04:16:23.029Z,70.43
2023-01-11T04:20:32.541Z,70.19
2023-01-11T04:24:42.048Z,70.28
2023-01-11T04:28:43.561Z,70.49
2023-01-11T04:32:27.717Z,70.63
2023-01-11T04:36:37.083Z,70.73
2023-01-11T04:40:46.919Z,70.58
2023-01-11T04:44:56.368Z,70.62
2023-01-11T04:48:45.795Z,70.63
2023-01-11T04:52:53.686Z,70.39
2023-01-11T04:56:53.273Z,70.51
2023-01-11T05:00:53.679Z,70.40
2023-01-11T05:04:39.577Z,70.54
2023-01-11T05:08:49.241Z,70.43
2023-01-11T05:12:40.032Z,70.17
2023-01-11T05:16:38.434Z,70.13
2023-01-11T05:20:48.166Z,70.12
2023-01-11T05:24:57.689Z,70.16
2023-01-11T05:28:45.981Z,70.24
2023-01-11T05:31:54.505Z,70.12
2023-01-11T05:35:26.703Z,70.06
2023-01-11T05:39:28.809Z,70.21
2023-01-11T05:43:28.352Z,70.07
2023-01-11T05:47:14.081Z,69.95
2023-01-11T05:51:12.783Z,69.88
2023-01-11T05:55:14.847Z,69.74
2023-01-11T05:59:07.823Z,69.77
2023-01-11T06:02:57.355Z,69.78
2023-01-11T06:06:45.714Z,69.60
2023-01-11T06:10:36.173Z,69.67
2023-01-11T06:14:24.463Z,69.47
2023-01-11T06:17:43.486Z,69.55
2023-01-11T06:21:04.584Z,69.46
2023-01-11T06:24:54.117Z,69.32
2023-01-11T06:28:41.550Z,69.51
2023-01-11T06:32:40.753Z,69.47
2023-01-11T06:36:08.594Z,69.42
2023-01-11T06:39:54.466Z,69.36
2023-01-11T06:43:36.580Z,69.38
2023-01-11T06:47:32.507Z,69.35
2023-01-11T06:51:32.856Z,69.32
2023-01-11T06:55:22.148Z,69.33
2023-01-11T06:59:00.133Z,69.41
2023-01-11T07:02:49.417Z,69.31
2023-01-11T07:05:39.049Z,69.03
2023-01-11T07:09:08.369Z,69.16
2023-01-11T07:12:55.248Z,69.15
2023-01-11T07:16:54.786Z,69.08
2023-01-11T07:20:33.256Z,69.01
2023-01-11T07:24:22.353Z,68.95
2023-01-11T07:28:32.128Z,68.90
2023-01-11T07:32:22.637Z,68.85
2023-01-11T07:36:07.648Z,68.89
2023-01-11T07:40:04.047Z,68.71
2023-01-11T07:51:35.224Z,68.56
2023-01-11T07:55:32.457Z,68.49
2023-01-11T07:59:32.138Z,68.42
2023-01-11T08:02:39.154Z,68.35
2023-01-11T08:06:13.725Z,68.10
2023-01-11T08:10:12.972Z,68.26
2023-01-11T08:13:14.870Z,68.02
2023-01-11T08:16:13.809Z,67.97
2023-01-11T08:19:38.655Z,67.90
2023-01-11T08:22:48.716Z,68.00
2023-01-11T08:25:49.224Z,67.84
2023-01-11T08:29:09.542Z,67.73
2023-01-11T08:32:54.418Z,67.82
2023-01-11T08:36:24.495Z,67.76
2023-01-11T08:39:45.962Z,67.51
2023-01-11T08:43:55.336Z,67.59
2023-01-11T08:48:04.824Z,67.58
2023-01-11T08:51:32.826Z,67.30
2023-01-11T08:55:22.021Z,67.28
2023-01-11T08:58:38.585Z,67.16
2023-01-11T09:01:25.961Z,67.12
2023-01-11T09:04:44.380Z,67.03
2023-01-11T09:07:47.537Z,67.02
2023-01-11T09:11:19.683Z,66.72
2023-01-11T09:15:12.070Z,66.80
2023-01-11T09:19:18.786Z,66.76
2023-01-11T09:23:08.131Z,66.71
2023-01-11T09:27:16.489Z,66.48
2023-01-11T09:31:16.152Z,66.38
2023-01-11T09:34:52.174Z,66.38
2023-01-11T09:38:35.295Z,66.22
2023-01-11T09:42:52.323Z,66.32
2023-01-11T09:46:41.532Z,66.03
2023-01-11T09:50:30.541Z,65.91
2023-01-11T09:54:39.962Z,65.85
2023-01-11T09:58:52.423Z,65.69
2023-01-11T10:03:05.115Z,65.61
2023-01-11T10:06:45.454Z,65.64
2023-01-11T10:18:29.453Z,65.34
2023-01-11T10:19:39.723Z,65.22
2023-01-11T10:23:43.216Z,65.18
2023-01-11T10:27:05.039Z,65.15
2023-01-11T10:30:32.728Z,65.18
2023-01-11T10:34:12.946Z,64.86
2023-01-11T10:38:13.489Z,64.80
2023-01-11T10:42:28.258Z,64.72
2023-01-11T10:45:46.565Z,64.75
2023-01-11T10:49:14.353Z,64.86
2023-01-11T10:53:34.435Z,64.39
2023-01-11T10:57:20.051Z,64.32
2023-01-11T11:00:41.673Z,64.38
2023-01-11T11:04:11.319Z,64.48
2023-01-11T11:08:32.860Z,64.25
2023-01-11T11:12:31.652Z,64.32
2023-01-11T11:16:12.314Z,64.29
2023-01-11T11:20:01.362Z,64.12
2023-01-11T11:23:54.549Z,64.30
2023-01-11T11:27:14.644Z,64.24
2023-01-11T11:30:34.664Z,64.15
2023-01-11T11:34:27.445Z,64.11
2023-01-11T11:37:39.332Z,63.89
2023-01-11T11:41:50.225Z,64.01
2023-01-11T11:46:11.982Z,63.94
2023-01-11T11:49:53.585Z,63.92
2023-01-11T11:53:06.664Z,64.01
2023-01-11T11:55:59.697Z,64.00
2023-01-11T11:59:30.341Z,63.73
2023-01-11T12:03:30.649Z,63.86
2023-01-11T12:07:25.048Z,63.90
2023-01-11T12:10:27.047Z,63.87
2023-01-11T12:14:40.277Z,63.84
2023-01-11T12:17:55.206Z,63.75
2023-01-11T12:20:51.532Z,63.60
2023-01-11T12:24:05.535Z,63.68
2023-01-11T12:27:26.694Z,63.68
2023-01-11T12:30:45.361Z,63.65
2023-01-11T12:33:49.542Z,63.69
2023-01-11T12:36:53.652Z,63.64
2023-01-11T12:39:57.768Z,63.54
2023-01-11T12:43:04.019Z,63.56
2023-01-11T12:46:14.713Z,63.65
2023-01-11T12:49:18.813Z,63.65
2023-01-11T12:52:16.980Z,63.60
2023-01-11T12:55:32.833Z,63.71
2023-01-11T12:58:38.645Z,63.62
2023-01-11T13:02:17.982Z,63.66
2023-01-11T13:05:29.585Z,63.70
2023-01-11T13:08:38.246Z,63.67
2023-01-11T13:12:27.517Z,63.72
2023-01-11T13:15:45.074Z,63.56
2023-01-11T13:18:59.196Z,63.61
2023-01-11T13:21:43.758Z,63.56
2023-01-11T13:24:26.505Z,63.63
2023-01-11T13:27:23.044Z,63.63
2023-01-11T13:31:10.802Z,63.47
2023-01-11T13:34:58.702Z,63.61
2023-01-11T13:38:14.092Z,63.45
2023-01-11T13:42:06.748Z,63.54
2023-01-11T13:46:21.375Z,63.67
2023-01-11T13:49:29.800Z,63.61
2023-01-11T13:52:58.739Z,63.74
2023-01-11T13:56:20.114Z,63.77
2023-01-11T14:00:03.978Z,63.56
2023-01-11T14:04:13.137Z,63.58
2023-01-11T14:08:05.854Z,63.62
2023-01-11T14:11:55.461Z,63.47
2023-01-11T14:15:39.869Z,63.53
2023-01-11T14:19:12.183Z,63.69
2023-01-11T14:22:44.299Z,63.63
2023-01-11T14:25:50.532Z,63.70
2023-01-11T14:29:25.656Z,63.66
2023-01-11T14:33:08.958Z,63.59
2023-01-11T14:36:52.870Z,63.78
2023-01-11T14:40:40.479Z,63.61
2023-01-11T14:43:30.592Z,63.69
2023-01-11T14:46:50.113Z,63.71
2023-01-11T14:50:05.132Z,63.78
2023-01-11T14:53:07.926Z,63.81
2023-01-11T14:55:46.589Z,63.78
2023-01-11T14:58:48.840Z,63.79
2023-01-11T15:01:28.967Z,63.84
2023-01-11T15:04:21.612Z,63.96
2023-01-11T15:07:42.147Z,63.72
2023-01-11T15:11:20.593Z,63.76
2023-01-11T15:14:41.685Z,63.91
2023-01-11T15:17:49.755Z,63.89
2023-01-11T15:21:02.167Z,63.91
2023-01-11T15:24:11.376Z,63.80
2023-01-11T15:27:01.908Z,63.88
2023-01-11T15:30:08.887Z,64.04
2023-01-11T15:33:15.558Z,63.95
2023-01-11T15:36:18.585Z,63.89
2023-01-11T15:39:15.720Z,63.96
2023-01-11T15:42:52.068Z,63.98
2023-01-11T15:46:28.365Z,64.18
2023-01-11T15:49:57.097Z,64.02
2023-01-11T15:53:27.680Z,64.03
2023-01-11T15:57:31.284Z,63.96
2023-01-11T16:05:39.640Z,64.14
2023-01-11T16:08:38.501Z,64.16
2023-01-11T16:11:34.578Z,64.23
2023-01-11T16:14:31.815Z,64.30
2023-01-11T16:17:00.907Z,64.26
2023-01-11T16:19:35.818Z,64.23
2023-01-11T16:22:05.879Z,64.27
2023-01-11T16:24:42.558Z,64.30
2023-01-11T16:27:27.826Z,64.29
2023-01-11T16:29:56.896Z,64.18
2023-01-11T16:32:33.015Z,64.23
2023-01-11T16:35:25.348Z,64.18
2023-01-11T16:38:04.226Z,64.18
2023-01-11T16:40:37.706Z,64.18
2023-01-11T16:43:08.857Z,64.22
2023-01-11T16:45:48.858Z,64.45
2023-01-11T16:48:35.720Z,64.39
2023-01-11T16:51:05.914Z,64.19
2023-01-11T16:53:36.141Z,64.23
2023-01-11T16:56:24.515Z,64.26
2023-01-11T16:59:14.195Z,64.15
2023-01-11T17:01:56.684Z,64.20
2023-01-11T17:04:32.083Z,64.26
2023-01-11T17:07:14.359Z,64.20
2023-01-11T17:09:43.914Z,64.29
2023-01-11T17:12:19.516Z,64.32
2023-01-11T17:14:50.240Z,64.19
2023-01-11T17:17:38.243Z,64.23
2023-01-11T17:20:19.881Z,64.17
2023-01-11T17:22:53.659Z,64.11
2023-01-11T17:25:37.265Z,64.21
2023-01-11T17:28:18.432Z,64.20
2023-01-11T17:30:48.921Z,64.31
2023-01-11T17:33:32.215Z,64.28
2023-01-11T17:36:01.740Z,64.32
2023-01-11T17:38:30.383Z,64.36
2023-01-11T17:41:01.446Z,64.27
2023-01-11T17:43:49.314Z,64.26
2023-01-11T17:46:36.870Z,64.33
2023-01-11T17:49:04.902Z,64.33
2023-01-11T17:51:34.695Z,64.18
2023-01-11T17:54:03.715Z,64.36
2023-01-11T17:56:37.764Z,64.31
2023-01-11T17:59:18.902Z,64.32
2023-01-11T18:02:12.154Z,64.35
2023-01-11T18:04:41.503Z,64.31
2023-01-11T18:07:28.277Z,64.48
2023-01-11T18:10:22.459Z,64.29
2023-01-11T18:13:23.190Z,64.26
2023-01-11T18:16:19.427Z,64.38
2023-01-11T18:19:30.605Z,64.39
2023-01-11T18:21:59.287Z,64.44
2023-01-11T18:24:32.714Z,64.36
2023-01-11T18:27:24.820Z,64.68
2023-01-11T18:29:54.499Z,64.79
2023-01-11T18:32:23.526Z,64.86
2023-01-11T18:34:54.493Z,64.87
2023-01-11T18:37:42.153Z,65.02
2023-01-11T18:40:17.727Z,64.84
2023-01-11T18:42:49.044Z,64.84
2023-01-11T18:45:18.196Z,65.06
2023-01-11T18:47:46.763Z,65.11
2023-01-11T18:50:17.511Z,65.11
2023-01-11T18:52:47.007Z,65.19
2023-01-11T18:55:15.388Z,65.15
2023-01-11T18:57:44.172Z,65.25
2023-01-11T19:00:15.160Z,65.36
2023-01-11T19:02:46.095Z,65.49
2023-01-11T19:05:18.830Z,65.59
2023-01-11T19:07:47.841Z,65.56
2023-01-11T19:10:18.631Z,65.68
2023-01-11T19:12:47.168Z,65.67
2023-01-11T19:15:16.658Z,65.78
2023-01-11T19:17:45.256Z,65.84
2023-01-11T19:20:14.425Z,65.96
2023-01-11T19:22:42.920Z,66.12
2023-01-11T19:25:11.777Z,66.02
2023-01-11T19:27:39.925Z,66.13
2023-01-11T19:30:27.724Z,66.20
2023-01-11T19:32:56.317Z,66.23
2023-01-11T19:35:45.127Z,66.24
2023-01-11T19:38:13.521Z,66.50
2023-01-11T19:40:41.796Z,66.50
2023-01-11T19:43:10.611Z,66.47
2023-01-11T19:45:38.698Z,66.62
2023-01-11T19:48:26.392Z,66.97
2023-01-11T19:51:02.757Z,66.85
2023-01-11T19:53:32.562Z,66.78
2023-01-11T19:56:05.045Z,66.95
2023-01-11T19:58:36.083Z,67.12
2023-01-11T20:01:11.922Z,67.15
2023-01-11T20:03:47.504Z,67.19
2023-01-11T20:06:16.058Z,67.33
2023-01-11T20:08:45.357Z,67.42
2023-01-11T20:11:16.113Z,67.35
2023-01-11T20:14:03.088Z,67.40
2023-01-11T20:16:51.044Z,67.56
2023-01-11T20:19:19.547Z,67.71
2023-01-11T20:22:06.855Z,67.74
2023-01-11T20:24:35.249Z,67.74
2023-01-11T20:27:03.648Z,67.98
2023-01-11T20:29:31.919Z,67.96
2023-01-11T20:32:18.582Z,68.01
2023-01-11T20:34:48.403Z,68.16
2023-01-11T20:37:37.343Z,68.09
2023-01-11T20:40:06.499Z,68.13
2023-01-11T20:42:34.943Z,68.40
2023-01-11T20:45:03.731Z,68.19
2023-01-11T20:47:31.903Z,68.31
2023-01-11T20:49:59.849Z,68.47
2023-01-11T20:52:28.655Z,68.49
2023-01-11T20:54:56.931Z,68.35
2023-01-11T20:57:29.624Z,68.49
2023-01-11T20:59:58.220Z,68.49
2023-01-11T21:02:26.610Z,68.59
2023-01-11T21:05:13.261Z,68.62
2023-01-11T21:08:00.118Z,68.76
2023-01-11T21:10:28.439Z,68.73
2023-01-11T21:15:26.015Z,68.71
2023-01-11T21:18:12.861Z,68.81
2023-01-11T21:20:47.766Z,68.77
2023-01-11T21:23:18.612Z,68.88
2023-01-11T21:25:47.011Z,68.96
2023-01-11T21:28:15.181Z,69.01
2023-01-11T21:30:43.660Z,69.00
2023-01-11T21:33:16.006Z,69.16
2023-01-11T21:35:44.109Z,69.14
2023-01-11T21:38:12.386Z,69.18
2023-01-11T21:40:40.529Z,69.36
2023-01-11T21:43:27.873Z,69.46
2023-01-11T21:45:56.867Z,69.34
2023-01-11T21:48:24.939Z,69.40
2023-01-11T21:50:54.348Z,69.44
2023-01-11T21:53:23.029Z,69.46
2023-01-11T21:55:51.208Z,69.37
2023-01-11T21:58:19.385Z,69.46
2023-01-11T22:00:47.464Z,69.60
2023-01-11T22:03:15.532Z,69.58
2023-01-11T22:05:43.622Z,69.63
2023-01-11T22:08:11.658Z,69.58
2023-01-11T22:10:39.737Z,69.65
2023-01-11T22:13:12.869Z,69.64
2023-01-11T22:15:40.932Z,69.78
2023-01-11T22:18:13.994Z,69.75
2023-01-11T22:20:42.152Z,69.88
2023-01-11T22:23:10.244Z,69.96
2023-01-11T22:25:38.316Z,69.90
2023-01-11T22:28:06.373Z,69.89
2023-01-11T22:30:34.376Z,70.00
2023-01-11T22:33:02.513Z,70.13
2023-01-11T22:35:31.410Z,70.05
2023-01-11T22:37:59.446Z,70.01
2023-01-11T22:40:27.620Z,70.13
2023-01-11T22:42:55.646Z,70.19
2023-01-11T22:45:23.785Z,70.16
2023-01-11T22:47:52.061Z,70.13
2023-01-11T22:50:20.042Z,70.11
2023-01-11T22:52:48.094Z,70.14
2023-01-11T22:55:34.621Z,70.10
2023-01-11T22:58:21.624Z,70.39
2023-01-11T23:00:49.898Z,70.52
2023-01-11T23:03:17.975Z,70.35
2023-01-11T23:05:46.956Z,70.39
2023-01-11T23:08:40.871Z,70.34
2023-01-11T23:11:11.879Z,70.43
2023-01-11T23:13:55.131Z,70.52
2023-01-11T23:16:23.213Z,70.43
2023-01-11T23:18:51.555Z,70.44
2023-01-11T23:21:20.663Z,70.46
2023-01-11T23:23:48.721Z,70.53
2023-01-11T23:26:20.491Z,70.69
2023-01-11T23:28:50.423Z,70.64
2023-01-11T23:31:23.546Z,70.61
2023-01-11T23:33:54.242Z,70.64
2023-01-11T23:36:24.574Z,70.79
2023-01-11T23:38:52.595Z,70.68
2023-01-11T23:41:40.348Z,70.67
2023-01-11T23:44:11.824Z,70.83
2023-01-11T23:46:59.542Z,70.89
2023-01-11T23:49:32.822Z,70.78
2023-01-11T23:52:01.615Z,70.90
2023-01-11T23:54:32.276Z,70.91
2023-01-11T23:57:01.946Z,70.94
2023-01-11T23:59:30.127Z,71.16
